sensor_id;sensor_type;location;lat;lon;timestamp;pressure;altitude;pressure_sealevel;temperature;humidity
6528;BME280;64597;42.664;23.256;2023-04-01T00:00:55;93680.72;;;12.10;51.83
6528;BME280;64597;42.664;23.256;2023-04-01T00:03:22;93697.66;;;12.19;52.48
6528;BME280;64597;42.664;23.256;2023-04-01T00:05:49;93700.03;;;12.16;52.71
6528;BME280;64597;42.664;23.256;2023-04-01T00:08:15;93690.50;;;12.15;52.59
6528;BME280;64597;42.664;23.256;2023-04-01T00:10:41;93687.06;;;12.14;52.54
6528;BME280;64597;42.664;23.256;2023-04-01T00:13:06;93693.41;;;12.18;52.44
6528;BME280;64597;42.664;23.256;2023-04-01T00:15:32;93696.06;;;12.23;52.35
6528;BME280;64597;42.664;23.256;2023-04-01T00:17:58;93701.34;;;12.23;52.32
6528;BME280;64597;42.664;23.256;2023-04-01T00:20:24;93704.50;;;12.25;52.00
6528;BME280;64597;42.664;23.256;2023-04-01T00:22:49;93696.06;;;12.28;52.25
6528;BME280;64597;42.664;23.256;2023-04-01T00:25:15;93701.59;;;12.32;52.37
6528;BME280;64597;42.664;23.256;2023-04-01T00:27:41;93698.69;;;12.23;52.75
6528;BME280;64597;42.664;23.256;2023-04-01T00:30:07;93681.53;;;12.16;52.72
6528;BME280;64597;42.664;23.256;2023-04-01T00:32:34;93684.44;;;12.24;52.42
6528;BME280;64597;42.664;23.256;2023-04-01T00:35:00;93683.09;;;12.27;52.71
6528;BME280;64597;42.664;23.256;2023-04-01T00:37:27;93682.06;;;12.28;53.38
6528;BME280;64597;42.664;23.256;2023-04-01T00:39:53;93677.56;;;12.28;53.63
6528;BME280;64597;42.664;23.256;2023-04-01T00:42:18;93677.84;;;12.22;53.71
6528;BME280;64597;42.664;23.256;2023-04-01T00:44:50;93672.81;;;12.25;53.72
6528;BME280;64597;42.664;23.256;2023-04-01T00:47:16;93677.03;;;12.21;53.97
6528;BME280;64597;42.664;23.256;2023-04-01T00:49:44;93678.88;;;12.21;53.83
6528;BME280;64597;42.664;23.256;2023-04-01T00:52:13;93677.31;;;12.20;53.72
6528;BME280;64597;42.664;23.256;2023-04-01T00:54:43;93668.84;;;12.23;53.42
6528;BME280;64597;42.664;23.256;2023-04-01T00:57:13;93664.88;;;12.25;53.49
6528;BME280;64597;42.664;23.256;2023-04-01T00:59:43;93663.81;;;12.21;53.33
6528;BME280;64597;42.664;23.256;2023-04-01T01:02:11;93655.88;;;12.16;53.26
6528;BME280;64597;42.664;23.256;2023-04-01T01:04:37;93647.97;;;12.16;53.43
6528;BME280;64597;42.664;23.256;2023-04-01T01:07:39;93635.81;;;12.15;53.08
6528;BME280;64597;42.664;23.256;2023-04-01T01:23:41;93615.75;;;11.99;53.33
6528;BME280;64597;42.664;23.256;2023-04-01T01:29:01;93600.97;;;11.83;53.27
6528;BME280;64597;42.664;23.256;2023-04-01T01:37:02;93603.09;;;11.71;53.91
6528;BME280;64597;42.664;23.256;2023-04-01T01:39:32;93595.97;;;11.77;53.69
6528;BME280;64597;42.664;23.256;2023-04-01T01:42:04;93606.78;;;11.75;53.74
6528;BME280;64597;42.664;23.256;2023-04-01T01:44:32;93613.13;;;11.74;53.93
6528;BME280;64597;42.664;23.256;2023-04-01T01:46:59;93596.22;;;11.70;53.67
6528;BME280;64597;42.664;23.256;2023-04-01T01:49:26;93594.91;;;11.73;53.18
6528;BME280;64597;42.664;23.256;2023-04-01T01:51:52;93580.06;;;11.61;53.17
6528;BME280;64597;42.664;23.256;2023-04-01T01:54:18;93588.31;;;11.75;53.20
6528;BME280;64597;42.664;23.256;2023-04-01T01:56:46;93592.00;;;11.74;53.04
6528;BME280;64597;42.664;23.256;2023-04-01T01:59:15;93581.97;;;11.71;52.66
6528;BME280;64597;42.664;23.256;2023-04-01T02:01:46;93588.56;;;11.74;52.83
6528;BME280;64597;42.664;23.256;2023-04-01T02:04:13;93565.03;;;11.62;52.07
6528;BME280;64597;42.664;23.256;2023-04-01T02:06:46;93573.50;;;11.74;52.20
6528;BME280;64597;42.664;23.256;2023-04-01T02:09:13;93584.06;;;11.84;51.88
6528;BME280;64597;42.664;23.256;2023-04-01T02:11:47;93572.47;;;11.85;51.97
6528;BME280;64597;42.664;23.256;2023-04-01T02:14:17;93571.91;;;11.78;52.20
6528;BME280;64597;42.664;23.256;2023-04-01T02:16:49;93581.41;;;11.84;52.38
6528;BME280;64597;42.664;23.256;2023-04-01T02:19:16;93578.25;;;11.82;52.33
6528;BME280;64597;42.664;23.256;2023-04-01T02:21:53;93571.66;;;11.80;52.56
6528;BME280;64597;42.664;23.256;2023-04-01T02:24:21;93568.75;;;11.86;52.60
6528;BME280;64597;42.664;23.256;2023-04-01T02:26:50;93579.84;;;11.88;52.71
6528;BME280;64597;42.664;23.256;2023-04-01T02:29:18;93585.13;;;11.83;52.82
6528;BME280;64597;42.664;23.256;2023-04-01T02:31:45;93589.34;;;11.84;52.84
6528;BME280;64597;42.664;23.256;2023-04-01T02:34:11;93582.50;;;11.83;52.77
6528;BME280;64597;42.664;23.256;2023-04-01T02:36:36;93591.47;;;11.82;53.12
6528;BME280;64597;42.664;23.256;2023-04-01T02:39:03;93585.66;;;11.85;53.12
6528;BME280;64597;42.664;23.256;2023-04-01T02:41:30;93581.41;;;11.84;52.86
6528;BME280;64597;42.664;23.256;2023-04-01T02:43:56;93582.75;;;11.87;52.80
6528;BME280;64597;42.664;23.256;2023-04-01T02:46:24;93583.53;;;11.82;53.01
6528;BME280;64597;42.664;23.256;2023-04-01T02:48:49;93585.13;;;11.83;53.50
6528;BME280;64597;42.664;23.256;2023-04-01T02:51:15;93592.53;;;11.81;53.32
6528;BME280;64597;42.664;23.256;2023-04-01T02:53:40;93598.34;;;11.78;52.84
6528;BME280;64597;42.664;23.256;2023-04-01T02:56:05;93603.63;;;11.83;52.85
6528;BME280;64597;42.664;23.256;2023-04-01T02:58:31;93601.25;;;11.87;52.78
6528;BME280;64597;42.664;23.256;2023-04-01T03:00:56;93598.06;;;11.80;52.04
6528;BME280;64597;42.664;23.256;2023-04-01T03:03:22;93599.91;;;11.84;52.20
6528;BME280;64597;42.664;23.256;2023-04-01T03:05:47;93609.94;;;11.92;52.16
6528;BME280;64597;42.664;23.256;2023-04-01T03:08:12;93600.44;;;11.86;51.69
6528;BME280;64597;42.664;23.256;2023-04-01T03:10:38;93613.09;;;11.94;51.35
6528;BME280;64597;42.664;23.256;2023-04-01T03:13:03;93604.13;;;11.95;51.70
6528;BME280;64597;42.664;23.256;2023-04-01T03:15:29;93600.44;;;11.96;52.40
6528;BME280;64597;42.664;23.256;2023-04-01T03:17:54;93605.47;;;11.93;53.01
6528;BME280;64597;42.664;23.256;2023-04-01T03:20:20;93613.91;;;11.80;54.10
6528;BME280;64597;42.664;23.256;2023-04-01T03:22:45;93610.75;;;11.83;50.53
6528;BME280;64597;42.664;23.256;2023-04-01T03:25:12;93621.81;;;11.90;53.23
6528;BME280;64597;42.664;23.256;2023-04-01T03:27:37;93619.44;;;11.88;54.95
6528;BME280;64597;42.664;23.256;2023-04-01T03:30:04;93611.00;;;11.96;52.82
6528;BME280;64597;42.664;23.256;2023-04-01T03:32:31;93595.16;;;12.01;53.56
6528;BME280;64597;42.664;23.256;2023-04-01T03:34:56;93594.06;;;12.02;52.70
6528;BME280;64597;42.664;23.256;2023-04-01T03:37:23;93583.50;;;12.02;53.45
6528;BME280;64597;42.664;23.256;2023-04-01T03:39:48;93580.06;;;12.07;53.77
6528;BME280;64597;42.664;23.256;2023-04-01T03:42:14;93574.53;;;12.13;53.42
6528;BME280;64597;42.664;23.256;2023-04-01T03:44:40;93561.81;;;12.20;53.11
6528;BME280;64597;42.664;23.256;2023-04-01T03:47:05;93548.31;;;12.27;53.98
6528;BME280;64597;42.664;23.256;2023-04-01T03:49:31;93534.84;;;12.23;56.42
6528;BME280;64597;42.664;23.256;2023-04-01T03:51:57;93529.31;;;12.20;56.54
6528;BME280;64597;42.664;23.256;2023-04-01T03:54:23;93507.94;;;12.11;56.49
6528;BME280;64597;42.664;23.256;2023-04-01T03:56:48;93520.59;;;12.14;57.32
6528;BME280;64597;42.664;23.256;2023-04-01T03:59:15;93496.13;;;11.94;56.69
6528;BME280;64597;42.664;23.256;2023-04-01T04:01:40;93502.72;;;11.91;56.30
6528;BME280;64597;42.664;23.256;2023-04-01T04:04:06;93508.00;;;11.86;55.95
6528;BME280;64597;42.664;23.256;2023-04-01T04:06:32;93496.38;;;11.92;56.03
6528;BME280;64597;42.664;23.256;2023-04-01T04:08:58;93480.00;;;11.95;55.85
6528;BME280;64597;42.664;23.256;2023-04-01T04:11:23;93460.97;;;11.88;55.17
6528;BME280;64597;42.664;23.256;2023-04-01T04:13:49;93481.56;;;12.01;55.11
6528;BME280;64597;42.664;23.256;2023-04-01T04:16:15;93486.56;;;12.03;55.82
6528;BME280;64597;42.664;23.256;2023-04-01T04:18:41;93496.09;;;12.04;56.23
6528;BME280;64597;42.664;23.256;2023-04-01T04:21:07;93475.50;;;11.96;56.43
6528;BME280;64597;42.664;23.256;2023-04-01T04:23:32;93483.13;;;12.02;57.39
6528;BME280;64597;42.664;23.256;2023-04-01T04:26:10;93481.56;;;11.96;57.86
6528;BME280;64597;42.664;23.256;2023-04-01T04:28:36;93475.75;;;11.94;57.70
6528;BME280;64597;42.664;23.256;2023-04-01T04:31:02;93493.19;;;11.95;57.58
6528;BME280;64597;42.664;23.256;2023-04-01T04:33:27;93462.03;;;11.92;57.66
6528;BME280;64597;42.664;23.256;2023-04-01T04:35:55;93461.78;;;11.94;57.78
6528;BME280;64597;42.664;23.256;2023-04-01T04:38:22;93475.50;;;11.91;58.24
6528;BME280;64597;42.664;23.256;2023-04-01T04:40:47;93468.63;;;11.90;57.87
6528;BME280;64597;42.664;23.256;2023-04-01T04:43:14;93452.81;;;11.80;57.44
6528;BME280;64597;42.664;23.256;2023-04-01T04:45:41;93440.97;;;11.72;57.31
6528;BME280;64597;42.664;23.256;2023-04-01T04:48:08;93455.72;;;11.78;57.52
6528;BME280;64597;42.664;23.256;2023-04-01T04:50:34;93455.97;;;11.82;58.18
6528;BME280;64597;42.664;23.256;2023-04-01T04:52:59;93449.94;;;11.81;58.33
6528;BME280;64597;42.664;23.256;2023-04-01T04:55:25;93444.13;;;11.79;58.64
6528;BME280;64597;42.664;23.256;2023-04-01T04:57:50;93428.84;;;11.71;57.60
6528;BME280;64597;42.664;23.256;2023-04-01T05:00:16;93442.56;;;11.73;58.00
6528;BME280;64597;42.664;23.256;2023-04-01T05:02:41;93445.16;;;11.78;57.46
6528;BME280;64597;42.664;23.256;2023-04-01T05:05:07;93435.69;;;11.72;57.63
6528;BME280;64597;42.664;23.256;2023-04-01T05:07:33;93442.28;;;11.70;58.22
6528;BME280;64597;42.664;23.256;2023-04-01T05:09:59;93434.63;;;11.63;58.48
6528;BME280;64597;42.664;23.256;2023-04-01T05:12:25;93392.44;;;11.48;58.63
6528;BME280;64597;42.664;23.256;2023-04-01T05:14:50;93427.25;;;11.60;57.84
6528;BME280;64597;42.664;23.256;2023-04-01T05:17:16;93416.69;;;11.55;58.36
6528;BME280;64597;42.664;23.256;2023-04-01T05:19:41;93415.66;;;11.46;59.69
6528;BME280;64597;42.664;23.256;2023-04-01T05:22:07;93387.44;;;11.31;58.96
6528;BME280;64597;42.664;23.256;2023-04-01T05:24:32;93399.31;;;11.34;58.38
6528;BME280;64597;42.664;23.256;2023-04-01T05:26:59;93396.41;;;11.40;57.89
6528;BME280;64597;42.664;23.256;2023-04-01T05:29:25;93402.16;;;11.57;57.26
6528;BME280;64597;42.664;23.256;2023-04-01T05:31:51;93393.19;;;11.58;57.17
6528;BME280;64597;42.664;23.256;2023-04-01T05:34:17;93407.97;;;11.70;58.91
6528;BME280;64597;42.664;23.256;2023-04-01T05:36:43;93404.97;;;11.96;58.76
6528;BME280;64597;42.664;23.256;2023-04-01T05:39:09;93400.59;;;12.30;58.24
6528;BME280;64597;42.664;23.256;2023-04-01T05:41:35;93412.91;;;12.45;57.34
6528;BME280;64597;42.664;23.256;2023-04-01T05:44:03;93397.25;;;12.59;56.33
6528;BME280;64597;42.664;23.256;2023-04-01T05:46:29;93392.22;;;12.96;56.28
6528;BME280;64597;42.664;23.256;2023-04-01T05:48:55;93395.38;;;12.98;55.83
6528;BME280;64597;42.664;23.256;2023-04-01T05:51:21;93362.34;;;13.24;55.28
6528;BME280;64597;42.664;23.256;2023-04-01T05:53:47;93379.47;;;13.32;56.58
6528;BME280;64597;42.664;23.256;2023-04-01T05:56:12;93382.66;;;15.30;70.76
6528;BME280;64597;42.664;23.256;2023-04-01T05:58:38;93375.72;;;16.92;58.88
6528;BME280;64597;42.664;23.256;2023-04-01T06:01:06;93359.13;;;18.18;55.36
6528;BME280;64597;42.664;23.256;2023-04-01T06:03:32;93360.38;;;18.76;52.90
6528;BME280;64597;42.664;23.256;2023-04-01T06:05:58;93366.31;;;18.73;47.63
6528;BME280;64597;42.664;23.256;2023-04-01T06:08:24;93361.16;;;18.12;42.19
6528;BME280;64597;42.664;23.256;2023-04-01T06:11:23;93369.13;;;17.56;41.11
6528;BME280;64597;42.664;23.256;2023-04-01T06:19:30;93373.66;;;16.53;41.49
6528;BME280;64597;42.664;23.256;2023-04-01T06:24:41;93386.91;;;16.04;41.33
6528;BME280;64597;42.664;23.256;2023-04-01T06:30:02;93366.13;;;15.79;42.31
6528;BME280;64597;42.664;23.256;2023-04-01T06:32:46;93362.97;;;15.77;41.90
6528;BME280;64597;42.664;23.256;2023-04-01T06:41:01;93340.00;;;15.40;43.28
6528;BME280;64597;42.664;23.256;2023-04-01T06:43:44;93355.53;;;15.33;43.11
6528;BME280;64597;42.664;23.256;2023-04-01T06:55:08;93322.56;;;15.20;43.72
6528;BME280;64597;42.664;23.256;2023-04-01T06:57:42;93327.44;;;15.13;44.75
6528;BME280;64597;42.664;23.256;2023-04-01T07:02:52;93320.69;;;14.88;43.98
6528;BME280;64597;42.664;23.256;2023-04-01T07:05:22;93291.16;;;14.63;43.66
6528;BME280;64597;42.664;23.256;2023-04-01T07:07:50;93307.25;;;14.85;44.23
6528;BME280;64597;42.664;23.256;2023-04-01T07:13:00;93319.41;;;15.18;43.98
6528;BME280;64597;42.664;23.256;2023-04-01T07:15:36;93323.94;;;15.31;44.11
6528;BME280;64597;42.664;23.256;2023-04-01T07:18:12;93327.59;;;15.35;44.07
6528;BME280;64597;42.664;23.256;2023-04-01T07:20:41;93353.72;;;15.47;44.30
6528;BME280;64597;42.664;23.256;2023-04-01T07:23:23;93352.34;;;15.63;54.58
6528;BME280;64597;42.664;23.256;2023-04-01T07:26:00;93325.16;;;16.07;49.46
6528;BME280;64597;42.664;23.256;2023-04-01T07:28:31;93341.97;;;16.16;44.60
6528;BME280;64597;42.664;23.256;2023-04-01T07:34:10;93313.03;;;16.86;41.92
6528;BME280;64597;42.664;23.256;2023-04-01T07:36:42;93334.63;;;17.06;41.52
6528;BME280;64597;42.664;23.256;2023-04-01T07:44:48;93338.78;;;16.41;41.61
6528;BME280;64597;42.664;23.256;2023-04-01T07:50:27;93335.94;;;17.40;65.96
6528;BME280;64597;42.664;23.256;2023-04-01T08:01:05;93305.31;;;20.19;42.32
6528;BME280;64597;42.664;23.256;2023-04-01T08:12:04;93290.09;;;19.19;36.56
6528;BME280;64597;42.664;23.256;2023-04-01T08:17:31;93275.53;;;18.56;37.37
6528;BME280;64597;42.664;23.256;2023-04-01T08:20:10;93272.22;;;18.17;37.68
6528;BME280;64597;42.664;23.256;2023-04-01T08:22:45;93257.25;;;17.90;38.58
6528;BME280;64597;42.664;23.256;2023-04-01T08:25:20;93257.53;;;17.80;39.22
6528;BME280;64597;42.664;23.256;2023-04-01T08:28:11;93268.50;;;17.70;39.43
6528;BME280;64597;42.664;23.256;2023-04-01T08:30:49;93251.47;;;17.96;39.30
6528;BME280;64597;42.664;23.256;2023-04-01T08:33:28;93229.69;;;18.54;38.89
6528;BME280;64597;42.664;23.256;2023-04-01T08:38:25;93203.78;;;18.55;38.42
6528;BME280;64597;42.664;23.256;2023-04-01T08:55:04;93190.38;;;21.69;38.60
6528;BME280;64597;42.664;23.256;2023-04-01T08:58:15;93185.00;;;21.69;37.49
6528;BME280;64597;42.664;23.256;2023-04-01T09:03:47;93178.53;;;21.82;34.67
6528;BME280;64597;42.664;23.256;2023-04-01T09:06:40;93170.25;;;21.75;35.41
6528;BME280;64597;42.664;23.256;2023-04-01T09:25:53;93155.06;;;20.41;30.93
6528;BME280;64597;42.664;23.256;2023-04-01T09:28:52;93150.47;;;20.30;30.25
6528;BME280;64597;42.664;23.256;2023-04-01T09:34:30;93146.13;;;20.17;28.76
6528;BME280;64597;42.664;23.256;2023-04-01T09:37:19;93147.94;;;20.04;27.63
6528;BME280;64597;42.664;23.256;2023-04-01T09:42:43;93135.53;;;20.00;28.20
6528;BME280;64597;42.664;23.256;2023-04-01T10:07:26;93076.16;;;20.84;27.13
6528;BME280;64597;42.664;23.256;2023-04-01T10:12:56;93065.22;;;20.77;27.43
6528;BME280;64597;42.664;23.256;2023-04-01T10:50:21;93016.31;;;20.11;27.62
6528;BME280;64597;42.664;23.256;2023-04-01T11:09:36;92996.31;;;19.96;28.21
6528;BME280;64597;42.664;23.256;2023-04-01T11:34:13;93088.16;;;19.09;36.45
6528;BME280;64597;42.664;23.256;2023-04-01T11:42:16;93160.47;;;18.15;40.75
6528;BME280;64597;42.664;23.256;2023-04-01T12:02:20;93289.28;;;16.18;55.61
6528;BME280;64597;42.664;23.256;2023-04-01T12:10:19;93267.59;;;15.75;57.35
6528;BME280;64597;42.664;23.256;2023-04-01T12:13:07;93265.97;;;15.65;57.00
6528;BME280;64597;42.664;23.256;2023-04-01T12:18:20;93272.13;;;15.75;59.10
6528;BME280;64597;42.664;23.256;2023-04-01T12:26:47;93268.09;;;15.77;58.05
6528;BME280;64597;42.664;23.256;2023-04-01T12:46:18;93259.28;;;14.95;58.42
6528;BME280;64597;42.664;23.256;2023-04-01T12:57:07;93239.03;;;16.52;53.12
6528;BME280;64597;42.664;23.256;2023-04-01T13:14:39;93166.19;;;17.49;58.72
6528;BME280;64597;42.664;23.256;2023-04-01T13:17:22;93153.84;;;18.38;56.09
6528;BME280;64597;42.664;23.256;2023-04-01T13:25:14;93160.19;;;19.26;48.39
6528;BME280;64597;42.664;23.256;2023-04-01T13:27:49;93154.69;;;19.60;45.98
6528;BME280;64597;42.664;23.256;2023-04-01T13:33:34;93158.59;;;19.92;42.84
6528;BME280;64597;42.664;23.256;2023-04-01T13:41:21;93127.97;;;16.66;46.20
6528;BME280;64597;42.664;23.256;2023-04-01T13:49:29;93120.78;;;15.92;47.44
6528;BME280;64597;42.664;23.256;2023-04-01T13:52:05;93102.25;;;15.78;48.68
6528;BME280;64597;42.664;23.256;2023-04-01T14:08:36;93073.25;;;15.32;48.76
6528;BME280;64597;42.664;23.256;2023-04-01T14:11:16;93088.56;;;15.35;47.99
6528;BME280;64597;42.664;23.256;2023-04-01T14:16:58;93088.22;;;15.28;44.98
6528;BME280;64597;42.664;23.256;2023-04-01T14:25:34;93056.91;;;15.39;45.90
6528;BME280;64597;42.664;23.256;2023-04-01T14:45:17;93031.19;;;15.61;42.40
6528;BME280;64597;42.664;23.256;2023-04-01T14:47:58;93018.63;;;15.53;43.38
6528;BME280;64597;42.664;23.256;2023-04-01T14:50:28;93055.56;;;15.63;43.46
6528;BME280;64597;42.664;23.256;2023-04-01T15:00:55;93045.34;;;15.79;42.84
6528;BME280;64597;42.664;23.256;2023-04-01T15:08:23;93058.53;;;15.84;44.34
6528;BME280;64597;42.664;23.256;2023-04-01T15:24:48;93084.31;;;15.84;45.11
6528;BME280;64597;42.664;23.256;2023-04-01T15:27:28;93099.63;;;15.87;43.91
6528;BME280;64597;42.664;23.256;2023-04-01T15:30:20;93091.06;;;15.68;43.47
6528;BME280;64597;42.664;23.256;2023-04-01T15:37:58;93100.00;;;15.49;43.87
6528;BME280;64597;42.664;23.256;2023-04-01T15:40:44;93093.47;;;15.42;43.72
6528;BME280;64597;42.664;23.256;2023-04-01T15:45:58;93167.47;;;15.35;44.52
6528;BME280;64597;42.664;23.256;2023-04-01T15:48:45;93292.06;;;15.31;46.11
6528;BME280;64597;42.664;23.256;2023-04-01T15:57:13;93353.28;;;14.20;51.87
6528;BME280;64597;42.664;23.256;2023-04-01T16:02:40;93359.31;;;13.36;56.38
6528;BME280;64597;42.664;23.256;2023-04-01T16:11:06;93386.47;;;12.45;61.36
6528;BME280;64597;42.664;23.256;2023-04-01T16:13:42;93391.06;;;12.34;61.26
6528;BME280;64597;42.664;23.256;2023-04-01T16:19:31;93411.50;;;13.82;78.80
6528;BME280;64597;42.664;23.256;2023-04-01T16:22:09;93398.59;;;15.30;67.86
6528;BME280;64597;42.664;23.256;2023-04-01T16:27:45;93387.75;;;17.33;56.53
6528;BME280;64597;42.664;23.256;2023-04-01T16:30:35;93395.13;;;18.29;51.38
6528;BME280;64597;42.664;23.256;2023-04-01T16:36:10;93418.34;;;18.28;45.00
6528;BME280;64597;42.664;23.256;2023-04-01T16:38:52;93427.84;;;17.28;45.62
6528;BME280;64597;42.664;23.256;2023-04-01T16:41:24;93430.63;;;16.52;46.87
6528;BME280;64597;42.664;23.256;2023-04-01T16:43:57;93432.56;;;15.79;48.36
6528;BME280;64597;42.664;23.256;2023-04-01T16:46:41;93434.41;;;15.32;49.88
6528;BME280;64597;42.664;23.256;2023-04-01T16:51:52;93438.41;;;14.60;52.48
6528;BME280;64597;42.664;23.256;2023-04-01T16:59:37;93452.16;;;13.44;54.78
6528;BME280;64597;42.664;23.256;2023-04-01T17:02:08;93446.56;;;13.17;54.99
6528;BME280;64597;42.664;23.256;2023-04-01T17:04:47;93456.31;;;12.78;55.33
6528;BME280;64597;42.664;23.256;2023-04-01T17:08:01;93475.75;;;12.63;56.25
6528;BME280;64597;42.664;23.256;2023-04-01T17:26:24;93487.16;;;11.85;58.57
6528;BME280;64597;42.664;23.256;2023-04-01T17:32:10;93485.84;;;11.72;58.86
6528;BME280;64597;42.664;23.256;2023-04-01T17:35:09;93484.78;;;11.63;59.44
6528;BME280;64597;42.664;23.256;2023-04-01T17:45:57;93485.88;;;11.27;60.68
6528;BME280;64597;42.664;23.256;2023-04-01T17:48:41;93490.09;;;11.13;60.09
6528;BME280;64597;42.664;23.256;2023-04-01T17:54:01;93479.00;;;10.81;58.83
6528;BME280;64597;42.664;23.256;2023-04-01T17:56:43;93491.91;;;10.67;59.55
6528;BME280;64597;42.664;23.256;2023-04-01T18:24:15;93537.09;;;10.29;60.82
6528;BME280;64597;42.664;23.256;2023-04-01T18:27:17;93545.53;;;10.31;60.03
6528;BME280;64597;42.664;23.256;2023-04-01T18:29:41;93548.09;;;10.21;60.75
6528;BME280;64597;42.664;23.256;2023-04-01T18:38:33;93568.81;;;10.07;60.82
6528;BME280;64597;42.664;23.256;2023-04-01T18:43:43;93568.47;;;9.93;60.71
6528;BME280;64597;42.664;23.256;2023-04-01T18:46:25;93554.53;;;9.93;60.87
6528;BME280;64597;42.664;23.256;2023-04-01T18:51:59;93568.94;;;9.80;61.94
6528;BME280;64597;42.664;23.256;2023-04-01T18:54:39;93566.03;;;9.82;61.68
6528;BME280;64597;42.664;23.256;2023-04-01T18:57:18;93563.38;;;9.77;61.30
6528;BME280;64597;42.664;23.256;2023-04-01T18:59:55;93566.50;;;9.74;61.10
6528;BME280;64597;42.664;23.256;2023-04-01T19:05:31;93573.06;;;9.71;61.70
6528;BME280;64597;42.664;23.256;2023-04-01T19:08:30;93572.28;;;9.71;61.75
6528;BME280;64597;42.664;23.256;2023-04-01T19:20:00;93591.06;;;9.53;60.78
6528;BME280;64597;42.664;23.256;2023-04-01T19:22:40;93607.38;;;9.50;61.32
6528;BME280;64597;42.664;23.256;2023-04-01T19:25:20;93609.72;;;9.46;61.11
6528;BME280;64597;42.664;23.256;2023-04-01T19:27:50;93619.78;;;9.54;61.10
6528;BME280;64597;42.664;23.256;2023-04-01T20:00:06;93643.50;;;9.91;59.86
6528;BME280;64597;42.664;23.256;2023-04-01T20:07:55;93634.00;;;9.90;59.28
6528;BME280;64597;42.664;23.256;2023-04-01T20:10:32;93621.63;;;9.90;58.54
6528;BME280;64597;42.664;23.256;2023-04-01T20:15:39;93610.72;;;9.72;58.17
6528;BME280;64597;42.664;23.256;2023-04-01T20:18:27;93616.97;;;9.66;58.95
6528;BME280;64597;42.664;23.256;2023-04-01T20:21:15;93621.53;;;9.75;60.94
6528;BME280;64597;42.664;23.256;2023-04-01T20:23:59;93617.84;;;9.76;58.96
6528;BME280;64597;42.664;23.256;2023-04-01T20:26:32;93626.41;;;9.62;59.32
6528;BME280;64597;42.664;23.256;2023-04-01T20:29:15;93622.00;;;11.23;87.21
6528;BME280;64597;42.664;23.256;2023-04-01T20:37:44;93624.38;;;10.42;61.35
6528;BME280;64597;42.664;23.256;2023-04-01T20:45:56;93640.41;;;9.99;58.95
6528;BME280;64597;42.664;23.256;2023-04-01T21:16:33;93650.88;;;9.31;58.50
6528;BME280;64597;42.664;23.256;2023-04-01T21:43:00;93647.75;;;9.34;57.04
6528;BME280;64597;42.664;23.256;2023-04-01T21:54:42;93648.22;;;9.31;56.79
6528;BME280;64597;42.664;23.256;2023-04-01T21:57:25;93654.56;;;9.30;56.43
6528;BME280;64597;42.664;23.256;2023-04-01T22:00:20;93651.38;;;9.28;56.23
6528;BME280;64597;42.664;23.256;2023-04-01T22:05:33;93649.75;;;9.22;55.90
6528;BME280;64597;42.664;23.256;2023-04-01T22:13:36;93649.97;;;9.20;55.98
6528;BME280;64597;42.664;23.256;2023-04-01T22:30:11;93628.09;;;9.14;56.40
6528;BME280;64597;42.664;23.256;2023-04-01T22:40:52;93642.78;;;9.10;56.85
6528;BME280;64597;42.664;23.256;2023-04-01T22:43:32;93633.88;;;9.11;55.50
6528;BME280;64597;42.664;23.256;2023-04-01T22:51:23;93655.91;;;9.10;54.90
6528;BME280;64597;42.664;23.256;2023-04-01T22:56:54;93662.16;;;9.04;54.67
6528;BME280;64597;42.664;23.256;2023-04-01T22:59:58;93672.75;;;9.09;54.94
6528;BME280;64597;42.664;23.256;2023-04-01T23:02:30;93665.88;;;9.08;55.74
6528;BME280;64597;42.664;23.256;2023-04-01T23:05:00;93677.75;;;9.11;55.20
6528;BME280;64597;42.664;23.256;2023-04-01T23:10:05;93669.03;;;9.05;55.81
6528;BME280;64597;42.664;23.256;2023-04-01T23:12:38;93672.94;;;9.03;55.97
6528;BME280;64597;42.664;23.256;2023-04-01T23:15:12;93677.94;;;9.04;56.40
6528;BME280;64597;42.664;23.256;2023-04-01T23:17:47;93686.38;;;9.06;55.76
6528;BME280;64597;42.664;23.256;2023-04-01T23:23:50;93682.72;;;9.07;55.76
6528;BME280;64597;42.664;23.256;2023-04-01T23:26:39;93682.09;;;9.00;55.51
6528;BME280;64597;42.664;23.256;2023-04-01T23:29:16;93684.72;;;9.00;55.08
6528;BME280;64597;42.664;23.256;2023-04-01T23:31:44;93691.59;;;9.01;56.00
6528;BME280;64597;42.664;23.256;2023-04-01T23:36:44;93678.84;;;8.93;55.71
6528;BME280;64597;42.664;23.256;2023-04-01T23:39:41;93684.66;;;8.95;55.94
6528;BME280;64597;42.664;23.256;2023-04-01T23:42:11;93679.28;;;8.85;55.90
6528;BME280;64597;42.664;23.256;2023-04-01T23:44:39;93689.38;;;8.93;55.53
6528;BME280;64597;42.664;23.256;2023-04-01T23:47:06;93681.81;;;8.97;55.82
6528;BME280;64597;42.664;23.256;2023-04-01T23:49:44;93683.88;;;8.95;55.83
6528;BME280;64597;42.664;23.256;2023-04-01T23:52:22;93678.84;;;8.93;55.06
6528;BME280;64597;42.664;23.256;2023-04-01T23:54:58;93687.28;;;8.95;55.75
6528;BME280;64597;42.664;23.256;2023-04-01T23:57:33;93676.63;;;8.80;55.54
